Time;durP1;ratioP1;P1;durP2;ratioP2;P2;SDS_P1;SDS_P2;PMS_P1;PMS_P2;Temp;Humidity;BMP_temperature;BMP_pressure;BME280_temperature;BME280_humidity;BME280_pressure;Samples;Min_cycle;Max_cycle;Signal;HPM_P1;HPM_P2
2022/06/12 00:02:20;;;;;;;;;3.40;2.00;;;;;17.71;100.00;102033.94;5053613;28;44857;-86
2022/06/12 00:04:45;;;;;;;;;1.75;1.75;;;;;17.71;100.00;102038.47;5069101;28;45236;-87
2022/06/12 00:07:11;;;;;;;;;2.25;1.25;;;;;17.68;100.00;102031.47;5050343;28;44697;-86
2022/06/12 00:09:36;;;;;;;;;5.25;1.00;;;;;17.67;100.00;102039.69;5050916;28;45231;-86
2022/06/12 00:12:02;;;;;;;;;3.00;2.75;;;;;17.66;100.00;102030.75;5067395;28;44842;-86
2022/06/12 00:14:27;;;;;;;;;2.80;2.00;;;;;17.67;100.00;102027.09;5050082;28;46954;-86
2022/06/12 00:16:54;;;;;;;;;3.50;2.50;;;;;17.67;100.00;102026.22;5071895;28;45155;-84
2022/06/12 00:19:20;;;;;;;;;1.00;1.00;;;;;17.64;100.00;102023.78;5073926;28;45403;-85
2022/06/12 00:21:45;;;;;;;;;7.25;4.50;;;;;17.61;100.00;102026.72;5073145;28;44777;-86
2022/06/12 00:24:16;;;;;;;;;3.50;1.25;;;;;17.53;100.00;102032.66;5055278;28;46092;-86
2022/06/12 00:26:54;;;;;;;;;5.20;2.40;;;;;17.39;100.00;102030.16;5057482;28;45438;-87
2022/06/12 00:29:25;;;;;;;;;5.80;1.00;;;;;17.37;100.00;102016.84;5072016;28;44790;-86
2022/06/12 00:31:56;;;;;;;;;1.40;1.00;;;;;17.37;100.00;102032.97;5072959;28;44683;-85
2022/06/12 00:34:26;;;;;;;;;2.20;2.20;;;;;17.31;100.00;102037.91;5051938;28;45128;-86
2022/06/12 00:36:53;;;;;;;;;3.40;2.40;;;;;17.29;100.00;102034.50;5030453;28;44891;-86
2022/06/12 00:39:19;;;;;;;;;3.20;1.60;;;;;17.26;100.00;102042.78;5031969;28;45385;-86
2022/06/12 00:41:47;;;;;;;;;3.00;3.00;;;;;17.22;100.00;102034.09;5051761;28;45005;-85
2022/06/12 00:44:17;;;;;;;;;2.60;2.60;;;;;17.20;100.00;102046.78;5050525;28;45011;-86
2022/06/12 00:46:54;;;;;;;;;3.00;1.40;;;;;17.17;100.00;102039.81;5054571;28;44711;-84
2022/06/12 00:49:44;;;;;;;;;1.20;1.20;;;;;17.19;100.00;102032.50;5034131;28;44705;-86
2022/06/12 00:52:18;;;;;;;;;3.00;1.00;;;;;17.16;100.00;102032.75;5055989;28;44787;-87
2022/06/12 00:54:49;;;;;;;;;2.20;2.20;;;;;17.13;100.00;102041.00;5051089;28;45150;-86
2022/06/12 00:57:17;;;;;;;;;3.00;2.00;;;;;17.05;100.00;102037.16;5053011;28;44758;-84
2022/06/12 00:59:50;;;;;;;;;2.00;2.00;;;;;17.04;100.00;102033.63;5053640;28;45243;-86
2022/06/12 01:02:21;;;;;;;;;3.20;2.00;;;;;17.03;100.00;102026.56;5031833;28;44871;-86
2022/06/12 01:07:37;;;;;;;;;7.40;1.40;;;;;16.98;100.00;102020.66;5052869;28;44720;-85
2022/06/12 01:10:07;;;;;;;;;5.80;2.80;;;;;16.98;100.00;102026.03;5028188;28;45449;-86
2022/06/12 01:12:44;;;;;;;;;5.80;4.00;;;;;16.98;100.00;102030.56;5044524;28;44799;-86
2022/06/12 01:15:16;;;;;;;;;5.00;3.00;;;;;16.98;100.00;102033.25;5048036;28;45639;-85
2022/06/12 01:17:43;;;;;;;;;5.00;2.60;;;;;16.96;100.00;102026.13;5047164;28;45410;-87
2022/06/12 01:20:14;;;;;;;;;3.40;1.00;;;;;16.98;100.00;102027.88;5030143;28;44740;-86
2022/06/12 01:23:01;;;;;;;;;2.00;2.00;;;;;16.94;100.00;102029.91;5029575;28;45199;-86
2022/06/12 01:25:45;;;;;;;;;5.20;1.60;;;;;16.92;100.00;102031.81;5030415;28;46077;-86
2022/06/12 01:28:37;;;;;;;;;0.80;0.00;;;;;16.86;100.00;102034.97;5049825;28;44734;-84
2022/06/12 01:31:31;;;;;;;;;2.40;2.40;;;;;16.85;100.00;102038.63;5046617;28;44763;-85
2022/06/12 01:34:29;;;;;;;;;5.60;1.20;;;;;16.80;100.00;102040.78;5059067;28;44755;-85
2022/06/12 01:37:16;;;;;;;;;1.00;1.00;;;;;16.67;100.00;102032.72;5043695;28;46469;-87
2022/06/12 01:40:30;;;;;;;;;3.20;1.60;;;;;16.66;100.00;102037.22;5063770;28;45230;-87
2022/06/12 01:43:01;;;;;;;;;4.80;3.00;;;;;16.61;100.00;102038.53;4985108;28;44743;-86
2022/06/12 01:45:34;;;;;;;;;3.00;2.60;;;;;16.49;100.00;102042.97;4981052;28;45622;-86
2022/06/12 01:48:18;;;;;;;;;3.40;2.60;;;;;16.51;100.00;102041.03;4978057;28;45410;-86
2022/06/12 01:50:59;;;;;;;;;5.20;1.60;;;;;16.43;100.00;102043.38;4978364;28;45222;-85
2022/06/12 01:53:38;;;;;;;;;2.00;0.40;;;;;16.40;100.00;102040.94;4978644;28;45214;-88
2022/06/12 01:56:48;;;;;;;;;5.20;2.80;;;;;16.37;100.00;102049.19;4984671;28;45412;-86
2022/06/12 01:59:21;;;;;;;;;1.60;1.60;;;;;16.39;100.00;102037.41;4955468;28;47122;-86
2022/06/12 02:02:22;;;;;;;;;3.00;3.00;;;;;16.34;100.00;102050.28;4979391;28;45552;-85
2022/06/12 02:05:13;;;;;;;;;1.00;1.00;;;;;16.29;100.00;102044.34;4887320;29;45337;-87
2022/06/12 02:08:06;;;;;;;;;3.80;0.80;;;;;16.23;100.00;102041.25;4889637;29;44854;-85
2022/06/12 02:10:50;;;;;;;;;4.60;2.00;;;;;16.19;100.00;102046.81;4863149;29;47311;-87
2022/06/12 02:13:26;;;;;;;;;4.00;2.00;;;;;16.14;100.00;102064.19;4868328;29;45286;-85
2022/06/12 02:16:10;;;;;;;;;2.00;2.00;;;;;16.11;100.00;102045.66;4895572;28;44841;-85
2022/06/12 02:18:54;;;;;;;;;4.00;2.20;;;;;16.09;100.00;102056.47;4942579;28;45367;-87
2022/06/12 02:21:30;;;;;;;;;1.40;1.40;;;;;16.08;100.00;102048.53;4958097;28;45293;-86
2022/06/12 02:24:07;;;;;;;;;2.80;1.20;;;;;16.03;100.00;102050.69;4971925;28;44820;-85
2022/06/12 02:27:17;;;;;;;;;0.40;0.40;;;;;15.94;100.00;102046.81;4960822;28;44970;-85
2022/06/12 02:29:50;;;;;;;;;1.40;0.60;;;;;15.91;100.00;102052.41;4883558;29;45509;-85
2022/06/12 02:32:31;;;;;;;;;1.80;1.80;;;;;15.92;100.00;102062.13;4864544;29;47132;-85
2022/06/12 02:35:01;;;;;;;;;1.00;1.00;;;;;15.85;100.00;102059.00;4878585;29;45430;-85
2022/06/12 02:37:36;;;;;;;;;2.40;1.00;;;;;15.84;100.00;102054.63;4868561;29;44826;-85
2022/06/12 02:40:08;;;;;;;;;4.40;1.60;;;;;15.88;100.00;102057.94;4923637;28;45297;-85
2022/06/12 02:42:38;;;;;;;;;4.00;2.00;;;;;15.88;100.00;102066.00;4939104;28;45511;-86
2022/06/12 02:45:10;;;;;;;;;4.20;2.40;;;;;15.84;100.00;102059.97;4943440;28;44843;-84
2022/06/12 02:47:38;;;;;;;;;6.60;2.20;;;;;15.73;100.00;102067.88;4943622;28;44799;-84
2022/06/12 02:50:06;;;;;;;;;8.00;2.60;;;;;15.72;100.00;102050.09;4944524;28;45229;-84
2022/06/12 02:52:57;;;;;;;;;3.00;1.80;;;;;15.76;100.00;102061.44;4939210;28;45214;-84
2022/06/12 02:55:37;;;;;;;;;2.60;2.60;;;;;15.73;100.00;102053.63;4943358;28;44886;-84
2022/06/12 02:58:20;;;;;;;;;1.60;1.60;;;;;15.72;100.00;102047.41;4949846;28;45499;-83
2022/06/12 03:00:51;;;;;;;;;2.75;1.00;;;;;15.66;100.00;102064.78;4933542;28;44808;-85
2022/06/12 03:03:41;;;;;;;;;2.00;2.00;;;;;15.62;100.00;102059.69;4944240;28;45142;-84
2022/06/12 03:06:08;;;;;;;;;5.00;2.00;;;;;15.60;100.00;102058.91;5034976;28;45404;-83
2022/06/12 03:08:42;;;;;;;;;1.60;1.00;;;;;15.62;100.00;102055.19;5027252;28;45335;-83
2022/06/12 03:11:23;;;;;;;;;2.60;1.20;;;;;15.61;100.00;102050.75;5044023;28;45260;-84
2022/06/12 03:13:52;;;;;;;;;3.20;2.00;;;;;15.60;100.00;102048.19;5045310;28;45061;-86
2022/06/12 03:16:24;;;;;;;;;3.60;1.20;;;;;15.59;100.00;102054.53;5044473;28;45313;-85
2022/06/12 03:19:06;;;;;;;;;3.40;2.00;;;;;15.57;100.00;102056.44;5026955;28;44820;-82
2022/06/12 03:21:59;;;;;;;;;7.75;4.00;;;;;15.61;100.00;102050.75;5027029;28;45641;-85
2022/06/12 03:25:02;;;;;;;;;3.60;3.00;;;;;15.62;100.00;102063.22;5044166;28;46644;-84
2022/06/12 03:27:48;;;;;;;;;3.80;3.00;;;;;15.61;100.00;102060.63;5041809;28;44718;-85
2022/06/12 03:30:28;;;;;;;;;4.80;2.80;;;;;15.58;100.00;102052.81;5024122;28;44961;-85
2022/06/12 03:33:15;;;;;;;;;2.20;1.00;;;;;15.59;100.00;102062.56;5042004;28;44794;-84
2022/06/12 03:36:06;;;;;;;;;3.80;1.20;;;;;15.57;100.00;102053.75;5059737;28;45339;-84
2022/06/12 03:38:53;;;;;;;;;6.00;2.00;;;;;15.58;100.00;102052.81;4981344;28;44891;-84
2022/06/12 03:41:27;;;;;;;;;5.40;2.00;;;;;15.56;100.00;102052.03;4980615;28;44846;-85
2022/06/12 03:44:12;;;;;;;;;5.20;2.40;;;;;15.57;100.00;102054.63;4964568;28;45506;-84
2022/06/12 03:46:50;;;;;;;;;1.80;1.00;;;;;15.54;100.00;102057.50;4982034;28;45249;-85
2022/06/12 03:49:42;;;;;;;;;4.00;2.40;;;;;15.55;100.00;102059.22;4985504;28;45496;-83
2022/06/12 03:52:15;;;;;;;;;3.60;2.80;;;;;15.53;100.00;102061.16;4978466;28;44745;-84
2022/06/12 03:54:44;;;;;;;;;4.00;3.20;;;;;15.57;100.00;102051.06;4979168;28;44774;-86
2022/06/12 04:00:39;;;;;;;;;3.40;1.40;;;;;15.56;100.00;102047.53;4980476;28;45466;-85
2022/06/12 04:03:15;;;;;;;;;1.00;1.00;;;;;15.57;100.00;102053.75;4980148;28;44896;-85
2022/06/12 04:05:49;;;;;;;;;3.00;3.00;;;;;15.57;100.00;102056.44;4985158;28;45276;-84
2022/06/12 04:08:24;;;;;;;;;1.80;1.80;;;;;15.58;100.00;102063.53;4983408;28;45391;-85
2022/06/12 04:10:52;;;;;;;;;5.40;2.20;;;;;15.60;100.00;102051.72;4985902;28;44693;-85
2022/06/12 04:13:20;;;;;;;;;2.20;2.00;;;;;15.64;100.00;102050.59;4987342;28;44851;-85
2022/06/12 04:15:52;;;;;;;;;2.20;2.20;;;;;15.68;100.00;102049.44;5032483;28;45356;-85
2022/06/12 04:18:18;;;;;;;;;2.60;1.40;;;;;15.73;100.00;102045.59;5047987;28;46696;-84
2022/06/12 04:20:55;;;;;;;;;3.40;2.20;;;;;15.82;100.00;102051.19;5047915;28;44666;-85
2022/06/12 04:23:48;;;;;;;;;3.00;2.60;;;;;15.90;100.00;102054.19;5063049;28;44857;-84
2022/06/12 04:26:20;;;;;;;;;3.00;3.00;;;;;15.99;100.00;102050.03;5061662;28;45254;-84
2022/06/12 04:28:53;;;;;;;;;4.60;2.80;;;;;16.06;100.00;102061.19;5061480;28;45266;-84
2022/06/12 04:31:20;;;;;;;;;2.20;1.20;;;;;16.06;100.00;102059.38;5061026;28;45345;-87
2022/06/12 04:34:07;;;;;;;;;2.40;1.40;;;;;16.16;100.00;102064.97;5048024;28;44877;-86
2022/06/12 04:36:33;;;;;;;;;1.40;1.40;;;;;16.24;100.00;102067.09;5043844;28;44775;-84
2022/06/12 04:38:59;;;;;;;;;4.25;1.00;;;;;16.32;100.00;102065.59;5047866;28;45249;-86
2022/06/12 04:41:28;;;;;;;;;4.50;3.25;;;;;16.31;100.00;102053.16;5028003;28;44682;-86
2022/06/12 04:43:56;;;;;;;;;2.00;2.00;;;;;16.40;100.00;102060.56;5029957;28;45406;-85
2022/06/12 04:46:22;;;;;;;;;5.00;2.40;;;;;16.46;100.00;102067.31;5025053;28;44804;-84
2022/06/12 04:48:51;;;;;;;;;3.00;1.60;;;;;16.56;100.00;102062.16;5040216;28;45211;-85
2022/06/12 04:51:18;;;;;;;;;1.20;1.20;;;;;16.61;100.00;102058.19;5040943;28;44865;-85
2022/06/12 04:53:46;;;;;;;;;3.40;2.00;;;;;16.69;100.00;102045.06;5040578;28;44820;-85
2022/06/12 04:56:14;;;;;;;;;3.00;2.40;;;;;16.82;100.00;102046.88;5022786;28;44872;-84
2022/06/12 04:58:40;;;;;;;;;1.60;1.40;;;;;16.89;100.00;102057.09;5022252;28;47067;-86
2022/06/12 05:01:07;;;;;;;;;5.25;3.00;;;;;16.90;100.00;102050.75;5047099;28;44809;-85
2022/06/12 05:03:33;;;;;;;;;3.80;3.00;;;;;17.00;100.00;102047.38;5029214;28;44754;-85
2022/06/12 05:05:59;;;;;;;;;0.40;0.00;;;;;17.17;100.00;102039.81;5044339;28;45432;-84
2022/06/12 05:08:25;;;;;;;;;3.80;3.00;;;;;17.40;100.00;102040.75;5040728;28;45243;-85
2022/06/12 05:10:54;;;;;;;;;5.00;1.60;;;;;17.54;100.00;102053.16;5041570;28;45221;-86
2022/06/12 05:13:20;;;;;;;;;3.00;3.00;;;;;17.67;100.00;102043.22;5041418;28;44854;-84
2022/06/12 05:15:46;;;;;;;;;2.00;2.00;;;;;17.71;100.00;102039.31;5041368;28;45317;-84
2022/06/12 05:18:15;;;;;;;;;3.00;1.00;;;;;17.71;100.00;102044.69;5043274;28;45508;-84
2022/06/12 05:20:41;;;;;;;;;2.80;1.00;;;;;17.61;100.00;102046.38;5041899;28;44870;-85
2022/06/12 05:23:07;;;;;;;;;2.25;2.00;;;;;17.42;100.00;102040.69;5024932;28;44712;-85
2022/06/12 05:25:34;;;;;;;;;1.00;1.00;;;;;17.20;100.00;102047.63;5050414;28;44894;-85
2022/06/12 05:28:01;;;;;;;;;1.80;1.80;;;;;17.25;100.00;102041.91;5056844;28;45065;-85
2022/06/12 05:30:29;;;;;;;;;3.40;3.00;;;;;17.43;100.00;102045.91;5056806;28;44791;-85
2022/06/12 05:32:57;;;;;;;;;3.60;0.80;;;;;17.58;100.00;102043.06;5057522;28;44790;-84
2022/06/12 05:35:24;;;;;;;;;6.20;3.00;;;;;17.67;100.00;102039.69;5071388;28;44850;-85
2022/06/12 05:37:51;;;;;;;;;1.00;1.00;;;;;17.75;100.00;102031.06;5069733;28;45087;-85
2022/06/12 05:40:21;;;;;;;;;3.60;2.20;;;;;17.95;100.00;102033.06;5068267;28;44754;-84
2022/06/12 05:42:47;;;;;;;;;2.00;2.00;;;;;17.94;100.00;102044.81;5050469;28;44665;-85
2022/06/12 05:45:16;;;;;;;;;0.40;0.40;;;;;18.02;100.00;102039.69;5050792;28;44928;-85
2022/06/12 05:47:51;;;;;;;;;3.60;1.80;;;;;18.01;100.00;102045.19;5068287;28;45076;-85
2022/06/12 05:50:18;;;;;;;;;2.80;2.80;;;;;18.00;100.00;102054.22;5066651;28;45312;-83
2022/06/12 05:52:43;;;;;;;;;1.20;1.20;;;;;17.87;100.00;102048.94;5068965;28;45552;-83
2022/06/12 05:55:10;;;;;;;;;3.25;1.50;;;;;17.66;100.00;102064.84;5070868;28;44881;-84
2022/06/12 05:57:35;;;;;;;;;3.20;2.00;;;;;17.45;100.00;102056.53;5068954;28;45132;-84
2022/06/12 06:00:01;;;;;;;;;1.00;1.00;;;;;17.42;100.00;102057.66;5050062;28;44754;-85
2022/06/12 06:02:26;;;;;;;;;3.40;1.80;;;;;17.32;100.00;102061.13;5049466;28;44758;-84
2022/06/12 06:04:53;;;;;;;;;4.00;2.75;;;;;17.40;100.00;102067.63;5067824;28;45469;-84
2022/06/12 06:07:19;;;;;;;;;7.80;2.00;;;;;17.45;100.00;102068.19;5050034;28;47036;-84
2022/06/12 06:09:44;;;;;;;;;5.00;2.00;;;;;17.28;100.00;102068.56;5076219;28;44687;-83
2022/06/12 06:12:10;;;;;;;;;1.75;1.00;;;;;17.25;100.00;102068.78;5067602;28;44738;-85
2022/06/12 06:14:36;;;;;;;;;4.25;2.25;;;;;17.24;100.00;102067.06;5045188;28;44821;-82
2022/06/12 06:17:01;;;;;;;;;3.00;1.50;;;;;17.24;100.00;102079.66;5066289;28;45230;-86
2022/06/12 06:19:26;;;;;;;;;5.25;2.75;;;;;17.32;100.00;102078.13;5066595;28;44877;-85
2022/06/12 06:21:52;;;;;;;;;4.75;2.00;;;;;17.44;100.00;102070.97;5064863;28;44863;-83
2022/06/12 06:24:18;;;;;;;;;0.00;0.00;;;;;17.65;100.00;102076.56;5061970;28;45150;-85
2022/06/12 06:26:44;;;;;;;;;4.20;2.00;;;;;17.83;100.00;102077.88;5065619;28;45352;-85
2022/06/12 06:29:10;;;;;;;;;2.25;1.50;;;;;17.98;100.00;102073.16;5048438;28;45511;-85
2022/06/12 06:31:36;;;;;;;;;3.20;1.60;;;;;18.12;100.00;102080.16;5067807;28;44773;-85
2022/06/12 06:34:03;;;;;;;;;1.00;1.00;;;;;18.09;100.00;102069.66;5049736;28;44829;-85
2022/06/12 06:36:28;;;;;;;;;3.40;1.40;;;;;18.15;100.00;102067.34;5043778;28;45160;-85
2022/06/12 06:38:56;;;;;;;;;1.25;0.25;;;;;18.14;100.00;102081.78;5043534;28;45175;-85
2022/06/12 06:41:23;;;;;;;;;6.20;3.00;;;;;18.24;100.00;102080.06;5044288;28;44791;-85
2022/06/12 06:46:33;;;;;;;;;2.60;2.60;;;;;18.59;100.00;102083.66;5044936;28;45082;-84
2022/06/12 06:49:00;;;;;;;;;1.25;1.25;;;;;18.50;100.00;102075.31;5046558;28;44727;-85
2022/06/12 06:51:25;;;;;;;;;5.80;1.80;;;;;18.42;100.00;102077.78;5051119;28;44805;-83
2022/06/12 06:53:51;;;;;;;;;2.00;1.50;;;;;18.48;100.00;102081.81;5028102;28;44878;-86
2022/06/12 06:56:19;;;;;;;;;3.50;0.00;;;;;18.69;100.00;102080.13;5041360;28;45337;-86
2022/06/12 06:58:45;;;;;;;;;1.80;1.80;;;;;18.84;100.00;102078.06;5039163;28;44766;-86
2022/06/12 07:01:10;;;;;;;;;1.80;1.00;;;;;18.58;100.00;102082.81;5021036;28;45314;-86
2022/06/12 07:03:36;;;;;;;;;3.00;1.50;;;;;18.57;100.00;102081.09;5040354;28;44901;-85
2022/06/12 07:06:02;;;;;;;;;2.00;2.00;;;;;18.37;100.00;102088.06;5039474;28;45087;-86
2022/06/12 07:08:29;;;;;;;;;3.80;2.00;;;;;18.30;100.00;102084.13;5045103;28;44822;-86
2022/06/12 07:10:55;;;;;;;;;2.20;1.60;;;;;18.43;100.00;102075.94;5028306;28;45370;-86
2022/06/12 07:13:22;;;;;;;;;5.60;2.40;;;;;18.92;100.00;102086.38;5039939;28;44678;-85
2022/06/12 07:15:48;;;;;;;;;2.60;1.20;;;;;19.19;100.00;102085.09;5039693;28;45269;-86
2022/06/12 07:18:14;;;;;;;;;3.00;3.00;;;;;19.53;100.00;102077.78;5038865;28;45148;-86
2022/06/12 07:20:47;;;;;;;;;0.00;0.00;;;;;19.82;100.00;102078.03;5038339;28;44747;-86
2022/06/12 07:23:14;;;;;;;;;1.80;1.80;;;;;19.87;100.00;102085.75;5039793;28;45404;-85
2022/06/12 07:25:45;;;;;;;;;2.40;1.60;;;;;20.01;100.00;102083.59;5022785;28;45139;-86
2022/06/12 07:28:12;;;;;;;;;1.40;1.20;;;;;19.85;100.00;102085.03;5040119;28;44692;-86
2022/06/12 07:30:38;;;;;;;;;3.80;2.20;;;;;19.92;100.00;102079.00;5021964;28;45292;-85
2022/06/12 07:33:05;;;;;;;;;1.00;1.00;;;;;19.89;100.00;102087.34;5023766;28;44887;-84
2022/06/12 07:35:32;;;;;;;;;2.20;0.60;;;;;19.86;100.00;102084.91;5028210;28;46604;-86
2022/06/12 07:37:59;;;;;;;;;0.60;0.00;;;;;19.90;100.00;102088.19;5028255;28;44795;-84
2022/06/12 07:40:32;;;;;;;;;1.40;1.20;;;;;20.21;100.00;102071.09;5048991;28;45301;-85
2022/06/12 07:42:57;;;;;;;;;4.80;1.00;;;;;20.40;97.59;102083.84;5051111;28;44676;-84
2022/06/12 07:45:22;;;;;;;;;2.25;2.25;;;;;20.60;97.67;102082.16;5029193;28;45930;-86
2022/06/12 07:47:48;;;;;;;;;3.25;2.00;;;;;20.61;94.49;102091.94;5044197;28;45446;-84
2022/06/12 07:50:15;;;;;;;;;4.00;2.00;;;;;20.61;97.97;102088.41;5063532;28;45517;-85
2022/06/12 07:52:42;;;;;;;;;2.00;2.00;;;;;20.24;99.56;102088.88;5051504;28;44821;-85
2022/06/12 07:55:10;;;;;;;;;2.20;2.20;;;;;20.27;100.00;102089.47;5049791;28;45250;-84
2022/06/12 07:57:37;;;;;;;;;2.00;2.00;;;;;20.26;100.00;102085.06;5046019;28;44798;-85
2022/06/12 08:00:05;;;;;;;;;3.00;1.00;;;;;20.41;99.84;102088.25;5030662;28;45307;-88
2022/06/12 08:02:31;;;;;;;;;2.60;0.80;;;;;20.57;98.50;102087.81;5053053;28;45327;-86
2022/06/12 08:04:56;;;;;;;;;3.50;2.00;;;;;20.60;95.97;102084.84;5043977;28;45270;-86
2022/06/12 08:07:22;;;;;;;;;3.25;1.75;;;;;20.58;97.86;102077.84;5024161;28;44710;-86
2022/06/12 08:09:47;;;;;;;;;3.00;2.00;;;;;20.50;95.89;102086.63;5043992;28;44771;-86
2022/06/12 08:12:13;;;;;;;;;3.00;2.00;;;;;20.38;98.31;102088.53;5058298;28;44985;-88
2022/06/12 08:14:38;;;;;;;;;2.50;1.00;;;;;20.34;98.17;102075.41;5043107;28;45187;-86
2022/06/12 08:17:05;;;;;;;;;1.00;1.00;;;;;20.45;98.01;102080.72;5057923;28;45546;-86
2022/06/12 08:22:15;;;;;;;;;3.80;1.20;;;;;20.42;92.50;102079.16;5044010;28;44739;-87
2022/06/12 08:24:40;;;;;;;;;2.20;1.60;;;;;20.53;94.89;102079.09;5048742;28;45133;-88
2022/06/12 08:27:08;;;;;;;;;2.00;2.00;;;;;20.69;96.66;102070.50;5050670;28;44703;-86
2022/06/12 08:29:35;;;;;;;;;2.40;1.60;;;;;20.95;94.26;102070.91;5043746;28;45306;-85
2022/06/12 08:32:10;;;;;;;;;3.40;1.00;;;;;20.84;95.09;102059.31;5043220;28;44882;-86
2022/06/12 08:34:44;;;;;;;;;3.80;1.60;;;;;20.76;97.26;102057.31;5042681;28;45067;-86
2022/06/12 08:37:18;;;;;;;;;2.40;2.40;;;;;20.67;91.39;102066.25;5043467;28;45262;-85
2022/06/12 08:39:43;;;;;;;;;3.00;1.40;;;;;20.58;94.52;102072.44;5047407;28;45319;-87
2022/06/12 08:42:11;;;;;;;;;1.25;1.25;;;;;20.66;94.09;102059.13;5043910;28;44834;-87
2022/06/12 08:45:02;;;;;;;;;3.80;2.20;;;;;20.44;95.32;102074.47;5027068;28;46854;-93
2022/06/12 08:47:58;;;;;;;;;2.00;1.00;;;;;20.34;94.84;102070.03;5036028;28;44834;-92
2022/06/12 08:50:41;;;;;;;;;1.40;1.00;;;;;20.68;94.90;102054.44;5056768;28;44726;-92
2022/06/12 08:53:42;;;;;;;;;1.40;1.00;;;;;20.69;89.36;102051.59;5038315;28;44864;-92
2022/06/12 08:56:21;;;;;;;;;1.00;1.00;;;;;20.64;88.89;102053.00;5055558;28;44947;-92
2022/06/12 08:58:54;;;;;;;;;1.00;1.00;;;;;20.56;86.43;102055.53;5050750;28;44751;-92
2022/06/12 09:01:23;;;;;;;;;1.00;1.00;;;;;20.58;89.85;102045.44;5034210;28;44634;-93
2022/06/12 09:03:54;;;;;;;;;5.20;1.40;;;;;20.77;93.12;102043.69;5037745;28;44858;-92
2022/06/12 09:06:44;;;;;;;;;3.40;1.80;;;;;20.92;91.58;102032.50;5050909;28;45521;-91
2022/06/12 09:09:25;;;;;;;;;2.20;2.00;;;;;20.88;85.30;102050.81;5052209;28;44738;-93
2022/06/12 09:12:11;;;;;;;;;1.60;1.60;;;;;20.84;84.32;102037.72;5054277;28;44726;-93
2022/06/12 09:22:27;;;;;;;;;1.40;1.40;;;;;21.30;88.14;102038.00;4998506;28;44637;-93
2022/06/12 09:25:30;;;;;;;;;3.20;1.40;;;;;21.49;86.46;102036.31;4943052;28;44749;-92
2022/06/12 09:28:29;;;;;;;;;1.40;1.20;;;;;21.53;86.24;102041.28;4932644;28;44902;-93
2022/06/12 09:31:25;;;;;;;;;2.20;1.80;;;;;21.37;84.51;102034.72;4917785;29;46725;-92
2022/06/12 09:34:48;;;;;;;;;3.00;1.20;;;;;21.30;82.77;102050.63;4934863;28;44609;-92
2022/06/12 09:40:34;;;;;;;;;2.40;2.00;;;;;21.57;82.92;102049.13;4882887;29;44785;-93
2022/06/12 09:43:07;;;;;;;;;2.40;2.20;;;;;21.73;82.61;102047.53;4882066;29;45066;-92
2022/06/12 09:45:49;;;;;;;;;2.80;2.80;;;;;21.71;84.11;102048.66;4879926;29;44715;-93
2022/06/12 09:48:23;;;;;;;;;2.20;2.20;;;;;21.75;83.94;102041.97;4877362;29;44832;-92
2022/06/12 09:51:33;;;;;;;;;5.60;3.20;;;;;21.60;84.95;102040.69;4878365;29;44872;-92
2022/06/12 09:54:31;;;;;;;;;2.00;2.00;;;;;21.68;87.54;102038.16;4824451;29;45306;-93
2022/06/12 09:57:18;;;;;;;;;2.00;2.00;;;;;21.95;83.66;102045.50;4823935;29;44801;-92
2022/06/12 10:00:16;;;;;;;;;1.60;1.60;;;;;21.79;83.90;102038.84;4822369;29;45352;-93
2022/06/12 10:02:50;;;;;;;;;3.40;2.80;;;;;22.00;86.08;102038.69;4868137;29;44983;-92
2022/06/12 10:05:27;;;;;;;;;3.00;1.80;;;;;22.18;87.17;102046.06;4867571;29;45124;-93
2022/06/12 10:08:19;;;;;;;;;1.20;1.20;;;;;22.30;85.67;102044.91;4886441;29;44700;-91
2022/06/12 10:11:05;;;;;;;;;3.00;3.00;;;;;22.23;83.78;102030.22;4893154;29;44750;-88
2022/06/12 10:13:45;;;;;;;;;2.80;2.20;;;;;22.29;84.57;102029.66;4888094;29;44765;-87
2022/06/12 10:16:18;;;;;;;;;4.00;2.80;;;;;22.46;84.83;102022.59;4904360;28;46806;-86
2022/06/12 10:18:59;;;;;;;;;2.60;2.60;;;;;22.68;81.79;102034.94;4971104;28;44810;-86
2022/06/12 10:21:26;;;;;;;;;4.00;3.40;;;;;22.30;81.63;102023.25;4949030;28;44816;-87
2022/06/12 10:23:52;;;;;;;;;3.20;2.00;;;;;22.27;83.48;102026.25;4963307;28;44881;-85
2022/06/12 10:26:24;;;;;;;;;3.00;1.00;;;;;22.30;83.83;102021.38;4948892;28;45348;-88
2022/06/12 10:29:09;;;;;;;;;1.00;1.00;;;;;22.28;84.18;102030.66;4971211;28;44809;-87
2022/06/12 10:31:46;;;;;;;;;4.00;2.80;;;;;22.39;84.31;102018.81;5006086;28;44760;-88
2022/06/12 10:34:28;;;;;;;;;3.20;2.40;;;;;22.55;84.58;102010.88;4995280;28;44753;-87
2022/06/12 10:36:54;;;;;;;;;1.80;1.80;;;;;22.42;84.43;102003.09;4957915;28;46692;-88
2022/06/12 10:39:24;;;;;;;;;3.80;3.00;;;;;22.36;84.84;101998.28;5007008;28;44832;-87
2022/06/12 10:42:01;;;;;;;;;2.80;2.40;;;;;22.37;84.87;102001.84;5042955;28;44786;-85
2022/06/12 10:44:45;;;;;;;;;3.40;2.20;;;;;22.48;83.39;102016.06;5024260;28;45365;-88
2022/06/12 10:47:25;;;;;;;;;3.60;3.00;;;;;22.69;83.64;102001.41;5040303;28;45263;-87
2022/06/12 10:50:03;;;;;;;;;3.00;3.00;;;;;22.86;82.94;101999.72;5041098;28;44820;-88
2022/06/12 10:52:28;;;;;;;;;3.60;2.00;;;;;22.87;81.44;101996.00;5044417;28;44712;-88
2022/06/12 10:54:54;;;;;;;;;1.00;1.00;;;;;22.67;82.15;101997.97;5043533;28;44963;-87
2022/06/12 10:57:37;;;;;;;;;0.00;0.00;;;;;22.41;82.94;101997.81;5042381;28;46723;-87
2022/06/12 11:00:10;;;;;;;;;3.00;3.00;;;;;22.75;81.97;101989.94;5041620;28;45274;-87
2022/06/12 11:02:36;;;;;;;;;3.00;3.00;;;;;22.79;80.41;101981.38;5040655;28;44796;-88
2022/06/12 11:05:23;;;;;;;;;2.25;2.25;;;;;22.62;79.36;101979.47;5045644;28;45582;-87
2022/06/12 11:08:00;;;;;;;;;3.20;2.60;;;;;22.61;80.04;101987.75;5028732;28;47051;-87
2022/06/12 11:10:25;;;;;;;;;1.00;1.00;;;;;22.72;77.21;101982.13;5042970;28;44733;-88
2022/06/12 11:13:09;;;;;;;;;2.00;2.00;;;;;22.86;77.48;101978.03;5044751;28;44755;-89
2022/06/12 11:15:53;;;;;;;;;2.80;2.80;;;;;23.01;75.71;101963.84;5024041;28;44868;-87
2022/06/12 11:18:47;;;;;;;;;2.00;2.00;;;;;22.93;75.66;101968.34;5044700;28;45085;-88
2022/06/12 11:21:18;;;;;;;;;4.40;3.20;;;;;23.14;72.49;101971.59;5008452;28;44758;-87
2022/06/12 11:24:18;;;;;;;;;2.40;2.40;;;;;22.99;70.66;101965.00;5045741;28;44728;-88
2022/06/12 11:27:08;;;;;;;;;3.20;2.60;;;;;23.17;68.25;101959.59;5026385;28;45337;-87
2022/06/12 11:30:12;;;;;;;;;1.00;1.00;;;;;23.50;67.96;101958.03;5042533;28;44998;-88
2022/06/12 11:32:54;;;;;;;;;5.00;4.60;;;;;23.27;72.29;101939.53;5043735;28;44851;-87
2022/06/12 11:35:37;;;;;;;;;5.00;4.00;;;;;23.44;73.69;101937.78;5063723;28;44757;-87
2022/06/12 11:38:31;;;;;;;;;5.80;4.00;;;;;23.11;74.78;101944.78;5064858;28;44695;-88
2022/06/12 11:41:08;;;;;;;;;5.80;5.00;;;;;23.22;75.27;101944.56;5067867;28;45379;-89
2022/06/12 11:43:42;;;;;;;;;5.00;1.00;;;;;23.21;73.75;101939.28;5071790;28;45217;-88
2022/06/12 11:47:10;;;;;;;;;3.40;3.40;;;;;23.17;74.79;101943.34;5061915;28;45301;-85
2022/06/12 11:49:48;;;;;;;;;5.00;4.60;;;;;23.16;73.78;101931.66;4904571;28;44936;-88
2022/06/12 11:52:16;;;;;;;;;3.80;3.00;;;;;23.48;71.89;101922.06;4889090;29;45508;-89
2022/06/12 11:55:19;;;;;;;;;2.20;2.00;;;;;23.63;63.95;101938.59;4886752;29;44814;-89
2022/06/12 11:58:06;;;;;;;;;1.40;1.40;;;;;23.63;64.09;101915.03;4899898;28;44833;-86
2022/06/12 12:00:37;;;;;;;;;2.40;2.40;;;;;23.71;62.49;101923.28;4899221;29;44874;-86
2022/06/12 12:03:34;;;;;;;;;2.00;1.80;;;;;23.72;62.69;101921.41;4899865;29;45412;-85
2022/06/12 12:06:29;;;;;;;;;5.40;3.20;;;;;23.77;61.03;101927.19;4902364;28;44810;-86
2022/06/12 12:09:07;;;;;;;;;2.60;2.60;;;;;23.68;62.29;101920.88;4904135;29;44822;-87
2022/06/12 12:11:41;;;;;;;;;0.20;0.20;;;;;23.72;59.85;101924.97;4902201;29;45551;-85
2022/06/12 12:14:09;;;;;;;;;2.60;2.60;;;;;23.75;61.94;101907.53;4890196;29;46258;-85
2022/06/12 12:16:45;;;;;;;;;3.00;3.00;;;;;23.67;58.90;101910.19;4906229;29;45253;-84
2022/06/12 12:19:23;;;;;;;;;3.00;2.40;;;;;23.56;61.08;101911.28;4903902;29;45359;-86